createdAt,value
2023-02-19T00:01:57.007Z,4.40
2023-02-19T00:04:25.278Z,4.50
2023-02-19T00:06:53.499Z,4.40
2023-02-19T00:09:23.100Z,4.40
2023-02-19T00:11:51.229Z,4.40
2023-02-19T00:14:21.759Z,4.50
2023-02-19T00:16:50.354Z,4.40
2023-02-19T00:19:20.949Z,4.50
2023-02-19T00:21:49.819Z,4.50
2023-02-19T00:24:22.308Z,4.50
2023-02-19T00:26:50.635Z,4.50
2023-02-19T00:29:20.968Z,4.50
2023-02-19T00:31:49.745Z,4.60
2023-02-19T00:34:18.294Z,4.60
2023-02-19T00:36:46.656Z,4.50
2023-02-19T00:39:18.379Z,4.50
2023-02-19T00:41:48.455Z,4.50
2023-02-19T00:44:19.022Z,4.50
2023-02-19T00:46:49.577Z,4.50
2023-02-19T00:49:20.970Z,4.50
2023-02-19T00:51:50.952Z,4.50
2023-02-19T00:54:20.350Z,4.60
2023-02-19T00:56:50.174Z,4.60
2023-02-19T00:59:20.837Z,4.60
2023-02-19T01:01:49.782Z,4.70
2023-02-19T01:04:18.723Z,4.60
2023-02-19T01:06:48.854Z,4.60
2023-02-19T01:09:17.175Z,4.60
2023-02-19T01:11:45.368Z,4.70
2023-02-19T01:14:15.013Z,4.70
2023-02-19T01:16:43.227Z,4.70
2023-02-19T01:19:11.719Z,4.70
2023-02-19T01:21:41.341Z,4.80
2023-02-19T01:24:11.914Z,4.80
2023-02-19T01:26:41.350Z,4.80
2023-02-19T01:29:09.776Z,4.80
2023-02-19T01:31:42.182Z,4.80
2023-02-19T01:34:12.240Z,4.80
2023-02-19T01:36:40.919Z,4.80
2023-02-19T01:39:09.355Z,4.90
2023-02-19T01:41:40.549Z,4.90
2023-02-19T01:44:29.612Z,4.80
2023-02-19T01:46:59.147Z,4.80
2023-02-19T01:49:29.929Z,4.80
2023-02-19T01:52:01.443Z,4.90
2023-02-19T01:54:32.689Z,4.90
2023-02-19T01:57:03.127Z,4.80
2023-02-19T01:59:34.439Z,4.90
2023-02-19T02:02:04.603Z,4.90
2023-02-19T02:04:33.987Z,4.90
2023-02-19T02:07:24.393Z,4.90
2023-02-19T02:10:11.119Z,4.90
2023-02-19T02:12:39.448Z,5.00
2023-02-19T02:15:08.825Z,5.00
2023-02-19T02:17:46.672Z,4.90
2023-02-19T02:20:45.514Z,4.90
2023-02-19T02:23:23.592Z,4.80
2023-02-19T02:26:23.440Z,4.80
2023-02-19T02:29:20.631Z,4.80
2023-02-19T02:31:55.197Z,4.80
2023-02-19T02:34:28.457Z,4.80
2023-02-19T02:36:58.463Z,4.80
2023-02-19T02:39:33.753Z,4.80
2023-02-19T02:42:22.266Z,4.90
2023-02-19T02:45:33.829Z,4.80
2023-02-19T02:48:10.023Z,4.90
2023-02-19T02:50:42.734Z,4.90
2023-02-19T02:53:34.855Z,4.80
2023-02-19T02:56:03.996Z,4.80
2023-02-19T02:58:36.285Z,4.80
2023-02-19T03:01:27.632Z,4.80
2023-02-19T03:04:03.173Z,4.80
2023-02-19T03:06:35.465Z,4.80
2023-02-19T03:09:10.781Z,4.80
2023-02-19T03:11:59.837Z,4.80
2023-02-19T03:14:51.959Z,4.90
2023-02-19T03:17:42.893Z,4.90
2023-02-19T03:20:17.006Z,4.80
2023-02-19T03:22:47.771Z,4.80
2023-02-19T03:25:37.053Z,4.80
2023-02-19T03:28:08.991Z,4.70
2023-02-19T03:30:41.222Z,4.70
2023-02-19T03:33:13.228Z,4.70
2023-02-19T03:35:46.052Z,4.60
2023-02-19T03:38:20.985Z,4.60
2023-02-19T03:40:57.315Z,4.60
2023-02-19T03:43:35.429Z,4.60
2023-02-19T03:46:10.546Z,4.50
2023-02-19T03:48:46.308Z,4.50
2023-02-19T03:51:31.718Z,4.50
2023-02-19T03:54:10.616Z,4.50
2023-02-19T03:56:45.872Z,4.50
2023-02-19T03:59:19.976Z,4.40
2023-02-19T04:01:53.269Z,4.30
2023-02-19T04:04:26.766Z,4.30
2023-02-19T04:06:59.277Z,4.20
2023-02-19T04:09:36.026Z,4.20
2023-02-19T04:12:09.340Z,4.20
2023-02-19T04:14:44.933Z,4.10
2023-02-19T04:17:21.106Z,4.00
2023-02-19T04:19:52.315Z,4.00
2023-02-19T04:22:24.377Z,4.00
2023-02-19T04:24:55.516Z,4.00
2023-02-19T04:27:23.816Z,4.00
2023-02-19T04:29:51.958Z,3.90
2023-02-19T04:32:20.154Z,3.90
2023-02-19T04:34:48.308Z,3.90
2023-02-19T04:37:16.530Z,3.90
2023-02-19T04:39:46.260Z,3.80
2023-02-19T04:42:14.387Z,3.80
2023-02-19T04:44:45.216Z,3.90
2023-02-19T04:47:13.400Z,3.80
2023-02-19T04:49:41.637Z,3.80
2023-02-19T04:52:09.766Z,3.80
2023-02-19T04:54:40.502Z,3.80
2023-02-19T04:57:10.092Z,3.70
2023-02-19T04:59:38.253Z,3.70
2023-02-19T05:02:06.418Z,3.70
2023-02-19T05:04:34.893Z,3.70
2023-02-19T05:07:03.243Z,3.70
2023-02-19T05:09:31.400Z,3.60
2023-02-19T05:11:59.552Z,3.60
2023-02-19T05:14:29.075Z,3.60
2023-02-19T05:16:57.286Z,3.50
2023-02-19T05:19:25.433Z,3.50
2023-02-19T05:21:53.656Z,3.50
2023-02-19T05:24:24.929Z,3.60
2023-02-19T05:26:53.105Z,3.60
2023-02-19T05:29:21.270Z,3.60
2023-02-19T05:31:50.854Z,3.60
2023-02-19T05:34:21.445Z,3.70
2023-02-19T05:36:49.622Z,3.60
2023-02-19T05:39:17.839Z,3.70
2023-02-19T05:41:45.965Z,3.70
2023-02-19T05:44:14.109Z,3.70
2023-02-19T05:46:42.456Z,3.70
2023-02-19T05:49:12.016Z,3.80
2023-02-19T05:51:40.199Z,3.80
2023-02-19T05:54:08.451Z,3.80
2023-02-19T05:56:38.666Z,3.80
2023-02-19T05:59:09.679Z,3.80
2023-02-19T06:01:40.429Z,3.80
2023-02-19T06:04:08.740Z,3.90
2023-02-19T06:06:38.648Z,3.90
2023-02-19T06:09:07.250Z,3.90
2023-02-19T06:11:35.925Z,3.90
2023-02-19T06:14:07.021Z,3.90
2023-02-19T06:16:35.350Z,4.00
2023-02-19T06:19:06.390Z,4.00
2023-02-19T06:21:34.857Z,4.00
2023-02-19T06:24:08.288Z,4.00
2023-02-19T06:26:39.826Z,4.00
2023-02-19T06:29:08.443Z,4.10
2023-02-19T06:31:43.984Z,4.00
2023-02-19T06:34:15.288Z,4.10
2023-02-19T06:36:43.516Z,4.10
2023-02-19T06:39:13.134Z,4.10
2023-02-19T06:41:41.286Z,4.20
2023-02-19T06:44:09.565Z,4.20
2023-02-19T06:46:38.094Z,4.30
2023-02-19T06:49:06.907Z,4.40
2023-02-19T06:51:35.525Z,4.50
2023-02-19T06:54:03.811Z,4.50
2023-02-19T06:56:34.645Z,4.60
2023-02-19T06:59:09.038Z,4.60
2023-02-19T07:01:38.372Z,4.60
2023-02-19T07:04:08.067Z,4.70
2023-02-19T07:06:37.095Z,4.70
2023-02-19T07:09:07.542Z,4.70
2023-02-19T07:11:40.880Z,4.70
2023-02-19T07:14:14.730Z,4.70
2023-02-19T07:16:47.480Z,4.70
2023-02-19T07:19:16.666Z,4.70
2023-02-19T07:21:47.314Z,4.70
2023-02-19T07:24:15.845Z,4.80
2023-02-19T07:26:45.449Z,4.80
2023-02-19T07:29:13.583Z,4.80
2023-02-19T07:31:41.792Z,4.80
2023-02-19T07:34:09.982Z,4.90
2023-02-19T07:36:38.407Z,4.80
2023-02-19T07:39:09.131Z,4.90
2023-02-19T07:41:38.228Z,4.90
2023-02-19T07:44:08.978Z,4.90
2023-02-19T07:46:37.232Z,5.00
2023-02-19T07:49:07.253Z,5.00
2023-02-19T07:51:35.567Z,5.00
2023-02-19T07:54:03.748Z,5.10
2023-02-19T07:56:31.936Z,5.20
2023-02-19T07:59:01.488Z,5.30
2023-02-19T08:01:48.655Z,5.40
2023-02-19T08:04:16.862Z,5.50
2023-02-19T08:06:45.051Z,5.50
2023-02-19T08:09:13.315Z,5.50
2023-02-19T08:11:59.144Z,5.60
2023-02-19T08:14:27.965Z,5.50
2023-02-19T08:16:57.566Z,5.60
2023-02-19T08:19:25.932Z,5.70
2023-02-19T08:21:54.554Z,5.80
2023-02-19T08:24:22.766Z,5.80
2023-02-19T08:26:53.489Z,5.90
2023-02-19T08:29:21.760Z,5.90
2023-02-19T08:31:50.090Z,5.90
2023-02-19T08:34:19.743Z,5.90
2023-02-19T08:36:47.999Z,5.90
2023-02-19T08:39:16.189Z,5.90
2023-02-19T08:41:44.608Z,5.90
2023-02-19T08:44:12.750Z,6.00
2023-02-19T08:46:41.069Z,5.90
2023-02-19T08:49:09.325Z,5.90
2023-02-19T08:51:38.825Z,5.90
2023-02-19T08:54:07.096Z,5.90
2023-02-19T08:56:35.337Z,5.90
2023-02-19T08:59:03.509Z,5.90
2023-02-19T09:01:31.652Z,5.90
2023-02-19T09:03:59.952Z,6.00
2023-02-19T09:06:28.187Z,6.00
2023-02-19T09:08:57.726Z,5.90
2023-02-19T09:11:26.037Z,5.90
2023-02-19T09:13:56.843Z,6.00
2023-02-19T09:16:25.031Z,6.10
2023-02-19T09:18:56.249Z,6.10
2023-02-19T09:21:24.457Z,6.20
2023-02-19T09:23:52.744Z,6.30
2023-02-19T09:26:24.923Z,6.30
2023-02-19T09:28:53.161Z,6.30
2023-02-19T09:31:21.432Z,6.40
2023-02-19T09:33:50.344Z,6.40
2023-02-19T09:36:19.725Z,6.50
2023-02-19T09:38:47.984Z,6.60
2023-02-19T09:41:21.913Z,6.60
2023-02-19T09:43:51.755Z,6.60
2023-02-19T09:46:28.073Z,6.70
2023-02-19T09:49:02.741Z,6.60
2023-02-19T09:51:32.270Z,6.60
2023-02-19T09:54:00.808Z,6.50
2023-02-19T09:56:29.123Z,6.50
2023-02-19T09:59:00.574Z,6.70
2023-02-19T10:01:33.758Z,6.80
2023-02-19T10:04:02.072Z,7.20
2023-02-19T10:06:30.807Z,7.90
2023-02-19T10:09:14.295Z,8.50
2023-02-19T10:11:43.617Z,9.10
2023-02-19T10:14:18.390Z,10.00
2023-02-19T10:16:49.434Z,10.70
2023-02-19T10:19:18.262Z,11.10
2023-02-19T10:21:46.636Z,11.30
2023-02-19T10:24:23.324Z,11.50
2023-02-19T10:26:51.879Z,11.50
2023-02-19T10:29:24.985Z,11.20
2023-02-19T10:32:17.105Z,10.80
2023-02-19T10:34:45.423Z,10.60
2023-02-19T10:37:17.028Z,10.30
2023-02-19T10:39:47.763Z,10.10
2023-02-19T10:42:21.557Z,10.00
2023-02-19T10:44:58.510Z,9.80
2023-02-19T10:47:28.327Z,9.70
2023-02-19T10:49:59.433Z,9.60
2023-02-19T10:52:31.403Z,9.50
2023-02-19T10:55:16.588Z,9.50
2023-02-19T10:57:45.158Z,9.40
2023-02-19T11:00:26.801Z,9.30
2023-02-19T11:03:25.897Z,9.20
2023-02-19T11:06:02.402Z,9.40
2023-02-19T11:08:31.728Z,9.30
2023-02-19T11:10:59.943Z,9.30
2023-02-19T11:13:32.637Z,9.30
2023-02-19T11:16:02.546Z,9.20
2023-02-19T11:18:33.400Z,9.10
2023-02-19T11:21:03.518Z,9.10
2023-02-19T11:23:33.468Z,9.00
2023-02-19T11:26:06.401Z,9.00
2023-02-19T11:28:36.967Z,9.10
2023-02-19T11:31:23.830Z,9.00
2023-02-19T11:33:57.356Z,9.00
2023-02-19T11:36:34.512Z,9.00
2023-02-19T11:39:21.110Z,8.90
2023-02-19T11:42:03.826Z,8.80
2023-02-19T11:44:46.299Z,8.80
2023-02-19T11:48:02.262Z,8.80
2023-02-19T11:50:42.678Z,8.90
2023-02-19T11:53:21.174Z,9.00
2023-02-19T11:56:04.324Z,9.00
2023-02-19T11:58:59.000Z,9.10
2023-02-19T12:02:04.205Z,9.20
2023-02-19T12:05:05.549Z,9.20
2023-02-19T12:08:13.749Z,9.20
2023-02-19T12:10:54.702Z,9.20
2023-02-19T12:13:31.868Z,9.20
2023-02-19T12:16:18.687Z,9.10
2023-02-19T12:19:21.907Z,9.10
2023-02-19T12:22:13.322Z,9.00
2023-02-19T12:25:10.929Z,8.90
2023-02-19T12:27:53.556Z,8.90
2023-02-19T12:30:48.395Z,8.70
2023-02-19T12:33:43.922Z,8.70
2023-02-19T12:36:21.961Z,8.60
2023-02-19T12:38:59.415Z,8.50
2023-02-19T12:41:37.529Z,8.30
2023-02-19T12:44:11.034Z,8.10
2023-02-19T12:46:42.654Z,8.00
2023-02-19T12:49:16.273Z,8.00
2023-02-19T12:51:48.809Z,8.10
2023-02-19T12:54:24.776Z,8.20
2023-02-19T12:57:00.986Z,8.30
2023-02-19T12:59:34.913Z,8.40
2023-02-19T13:02:11.835Z,8.60
2023-02-19T13:04:48.606Z,8.80
2023-02-19T13:07:21.759Z,8.90
2023-02-19T13:09:56.730Z,9.10
2023-02-19T13:12:28.020Z,9.20
2023-02-19T13:14:59.133Z,9.20
2023-02-19T13:17:33.066Z,9.10
2023-02-19T13:20:06.449Z,9.10
2023-02-19T13:22:57.412Z,9.20
2023-02-19T13:25:33.985Z,9.40
2023-02-19T13:28:12.776Z,9.50
2023-02-19T13:31:02.618Z,9.50
2023-02-19T13:33:49.345Z,9.60
2023-02-19T13:36:24.179Z,9.80
2023-02-19T13:38:52.789Z,9.80
2023-02-19T13:41:29.412Z,9.80
2023-02-19T13:44:00.476Z,9.80
2023-02-19T13:46:38.114Z,9.90
2023-02-19T13:49:46.478Z,9.90
2023-02-19T13:52:40.606Z,9.90
2023-02-19T13:55:48.553Z,9.90
2023-02-19T13:58:53.928Z,10.00
2023-02-19T14:02:12.631Z,9.80
2023-02-19T14:04:51.859Z,9.80
2023-02-19T14:07:56.104Z,9.60
2023-02-19T14:11:03.355Z,9.50
2023-02-19T14:13:59.283Z,9.30
2023-02-19T14:16:52.694Z,9.10
2023-02-19T14:19:46.625Z,8.90
2023-02-19T14:22:52.836Z,8.70
2023-02-19T14:25:45.785Z,8.60
2023-02-19T14:28:27.166Z,8.40
2023-02-19T14:30:58.845Z,8.30
2023-02-19T14:33:29.252Z,8.20
2023-02-19T14:36:02.636Z,8.20
2023-02-19T14:38:40.019Z,8.10
2023-02-19T14:41:13.587Z,8.00
2023-02-19T14:43:45.560Z,7.90
2023-02-19T14:46:24.584Z,7.90
2023-02-19T14:48:53.146Z,7.80
2023-02-19T14:51:30.931Z,7.80
2023-02-19T14:54:00.595Z,7.70
2023-02-19T14:56:33.066Z,7.60
2023-02-19T14:59:09.339Z,7.50
2023-02-19T15:01:39.769Z,7.50
2023-02-19T15:04:20.725Z,7.40
2023-02-19T15:06:53.120Z,7.40
2023-02-19T15:09:22.841Z,7.40
2023-02-19T15:11:51.200Z,7.40
2023-02-19T15:14:23.832Z,7.30
2023-02-19T15:16:59.442Z,7.20
2023-02-19T15:19:33.582Z,7.20
2023-02-19T15:22:02.590Z,7.10
2023-02-19T15:24:31.231Z,7.10
2023-02-19T15:26:59.465Z,7.00
2023-02-19T15:29:28.935Z,7.00
2023-02-19T15:32:01.428Z,6.90
2023-02-19T15:34:31.437Z,6.90
2023-02-19T15:37:02.265Z,6.80
2023-02-19T15:39:38.997Z,6.80
2023-02-19T15:42:10.002Z,6.70
2023-02-19T15:44:48.281Z,6.70
2023-02-19T15:47:24.711Z,6.60
2023-02-19T15:49:58.910Z,6.50
2023-02-19T15:52:39.892Z,6.50
2023-02-19T15:55:20.540Z,6.50
2023-02-19T15:57:54.291Z,6.40
2023-02-19T16:00:28.815Z,6.40
2023-02-19T16:02:59.367Z,6.40
2023-02-19T16:05:30.808Z,6.30
2023-02-19T16:08:16.488Z,6.30
2023-02-19T16:10:57.725Z,6.30
2023-02-19T16:13:27.661Z,6.30
2023-02-19T16:16:02.318Z,6.30
2023-02-19T16:18:32.417Z,6.20
2023-02-19T16:21:01.092Z,6.10
2023-02-19T16:23:30.766Z,6.00
2023-02-19T16:26:01.347Z,6.00
2023-02-19T16:28:32.102Z,6.00
2023-02-19T16:31:01.940Z,6.00
2023-02-19T16:33:41.577Z,6.00
2023-02-19T16:36:21.639Z,5.90
2023-02-19T16:39:15.123Z,5.90
2023-02-19T16:42:16.794Z,5.80
2023-02-19T16:44:46.080Z,5.80
2023-02-19T16:47:21.344Z,5.80
2023-02-19T16:49:51.045Z,5.80
2023-02-19T16:52:19.201Z,5.70
2023-02-19T16:54:49.034Z,5.70
2023-02-19T16:57:17.460Z,5.70
2023-02-19T16:59:48.236Z,5.70
2023-02-19T17:02:20.599Z,5.70
2023-02-19T17:04:51.856Z,5.70
2023-02-19T17:07:20.292Z,5.70
2023-02-19T17:09:48.551Z,5.70
2023-02-19T17:12:18.380Z,5.80
2023-02-19T17:14:46.677Z,5.80
2023-02-19T17:17:14.921Z,5.80
2023-02-19T17:19:43.175Z,5.80
2023-02-19T17:22:16.840Z,5.70
2023-02-19T17:24:46.030Z,5.70
2023-02-19T17:27:14.332Z,5.60
2023-02-19T17:29:42.519Z,5.60
2023-02-19T17:32:10.837Z,5.60
2023-02-19T17:34:39.117Z,5.50
2023-02-19T17:37:07.344Z,5.50
2023-02-19T17:39:36.877Z,5.40
2023-02-19T17:42:06.119Z,5.40
2023-02-19T17:44:34.433Z,5.50
2023-02-19T17:47:02.663Z,5.40
2023-02-19T17:49:30.928Z,5.40
2023-02-19T17:51:59.652Z,5.40
2023-02-19T17:54:27.844Z,5.40
2023-02-19T17:56:57.360Z,5.30
2023-02-19T17:59:25.573Z,5.30
2023-02-19T18:01:56.191Z,5.30
2023-02-19T18:04:24.435Z,5.30
2023-02-19T18:06:53.969Z,5.20
2023-02-19T18:09:24.685Z,5.20
2023-02-19T18:11:52.950Z,5.20
2023-02-19T18:14:22.473Z,5.20
2023-02-19T18:16:51.629Z,5.10
2023-02-19T18:19:20.182Z,5.10
2023-02-19T18:21:48.420Z,5.00
2023-02-19T18:24:16.641Z,5.00
2023-02-19T18:26:44.994Z,5.00
2023-02-19T18:29:13.410Z,4.90
2023-02-19T18:31:43.012Z,4.90
2023-02-19T18:34:19.357Z,4.80
2023-02-19T18:36:47.908Z,4.80
2023-02-19T18:39:17.012Z,4.80
2023-02-19T18:41:48.169Z,4.80
2023-02-19T18:44:20.006Z,4.70
2023-02-19T18:46:50.028Z,4.80
2023-02-19T18:49:19.101Z,4.70
2023-02-19T18:51:47.772Z,4.70
2023-02-19T18:54:16.019Z,4.60
2023-02-19T18:56:44.662Z,4.60
2023-02-19T18:59:13.573Z,4.60
2023-02-19T19:01:41.938Z,4.60
2023-02-19T19:04:11.633Z,4.50
2023-02-19T19:06:39.902Z,4.50
2023-02-19T19:09:08.727Z,4.50
2023-02-19T19:11:38.025Z,4.40
2023-02-19T19:14:06.356Z,4.40
2023-02-19T19:16:34.581Z,4.40
2023-02-19T19:19:02.810Z,4.40
2023-02-19T19:21:32.629Z,4.40
2023-02-19T19:24:00.992Z,4.40
2023-02-19T19:26:29.494Z,4.30
2023-02-19T19:28:57.856Z,4.30
2023-02-19T19:31:26.226Z,4.20
2023-02-19T19:33:54.553Z,4.20
2023-02-19T19:36:24.085Z,4.20
2023-02-19T19:38:53.617Z,4.10
2023-02-19T19:41:22.460Z,4.10
2023-02-19T19:43:50.670Z,4.10
2023-02-19T19:46:20.669Z,4.00
2023-02-19T19:48:50.222Z,4.00
2023-02-19T19:51:18.879Z,4.00
2023-02-19T19:53:49.094Z,4.00
2023-02-19T19:56:21.238Z,4.00
2023-02-19T19:58:49.524Z,3.90
2023-02-19T20:01:21.133Z,3.90
2023-02-19T20:03:51.042Z,3.80
2023-02-19T20:06:27.016Z,3.80
2023-02-19T20:08:55.502Z,3.70
2023-02-19T20:11:25.258Z,3.70
2023-02-19T20:13:53.550Z,3.60
2023-02-19T20:16:26.131Z,3.60
2023-02-19T20:18:54.410Z,3.60
2023-02-19T20:21:22.640Z,3.70
2023-02-19T20:23:50.898Z,3.70
2023-02-19T20:26:25.556Z,3.70
2023-02-19T20:28:54.035Z,3.70
2023-02-19T20:31:22.902Z,3.50
2023-02-19T20:33:53.767Z,3.60
2023-02-19T20:36:22.246Z,3.60
2023-02-19T20:38:52.645Z,3.50
2023-02-19T20:41:20.848Z,3.50
2023-02-19T20:43:50.424Z,3.40
2023-02-19T20:46:19.135Z,3.40
2023-02-19T20:48:47.352Z,3.40
2023-02-19T20:51:17.878Z,3.40
2023-02-19T20:53:46.137Z,3.40
2023-02-19T20:56:14.408Z,3.30
2023-02-19T20:58:43.335Z,3.30
2023-02-19T21:01:13.030Z,3.30
2023-02-19T21:03:41.271Z,3.30
2023-02-19T21:06:09.970Z,3.20
2023-02-19T21:08:40.524Z,3.20
2023-02-19T21:11:08.691Z,3.10
2023-02-19T21:13:37.018Z,3.10
2023-02-19T21:16:05.668Z,3.10
2023-02-19T21:18:35.371Z,3.00
2023-02-19T21:21:03.598Z,3.10
2023-02-19T21:23:31.841Z,3.00
2023-02-19T21:26:02.659Z,3.00
2023-02-19T21:28:30.850Z,3.10
2023-02-19T21:30:59.098Z,3.10
2023-02-19T21:33:27.250Z,3.00
2023-02-19T21:35:57.563Z,3.00
2023-02-19T21:38:26.032Z,3.00
2023-02-19T21:40:54.239Z,3.00
2023-02-19T21:43:22.458Z,2.90
2023-02-19T21:45:50.720Z,2.90
2023-02-19T21:48:18.884Z,2.90
2023-02-19T21:50:47.073Z,2.90
2023-02-19T21:53:17.229Z,2.90
2023-02-19T21:55:58.302Z,2.90
2023-02-19T21:58:27.061Z,2.80
2023-02-19T22:00:56.368Z,2.80
2023-02-19T22:03:26.467Z,2.80
2023-02-19T22:05:54.658Z,2.80
2023-02-19T22:08:26.708Z,2.80
2023-02-19T22:10:54.951Z,2.80
2023-02-19T22:13:23.115Z,2.80
2023-02-19T22:15:53.605Z,2.80
2023-02-19T22:18:21.751Z,2.70
2023-02-19T22:20:49.998Z,2.70
2023-02-19T22:23:18.162Z,2.70
2023-02-19T22:25:47.689Z,2.70
2023-02-19T22:28:16.061Z,2.60
2023-02-19T22:30:46.914Z,2.60
2023-02-19T22:33:15.077Z,2.60
2023-02-19T22:35:43.537Z,2.50
2023-02-19T22:38:12.046Z,2.50
2023-02-19T22:40:40.302Z,2.50
2023-02-19T22:43:12.101Z,2.50
2023-02-19T22:45:41.423Z,2.50
2023-02-19T22:48:16.872Z,2.50
2023-02-19T22:50:47.527Z,2.60
2023-02-19T22:53:15.778Z,2.60
2023-02-19T22:55:43.917Z,2.60
2023-02-19T22:58:13.461Z,2.60
2023-02-19T23:00:44.012Z,2.60
2023-02-19T23:03:12.180Z,2.60
2023-02-19T23:05:40.348Z,2.70
2023-02-19T23:08:08.492Z,2.70
2023-02-19T23:10:36.655Z,2.70
2023-02-19T23:13:05.438Z,2.80
2023-02-19T23:15:35.154Z,2.80
2023-02-19T23:18:04.625Z,2.80
2023-02-19T23:20:32.791Z,2.90
2023-02-19T23:23:00.974Z,2.90
2023-02-19T23:25:29.216Z,2.90
2023-02-19T23:27:58.562Z,2.90
2023-02-19T23:30:27.171Z,2.90
2023-02-19T23:32:58.839Z,2.90
2023-02-19T23:35:27.052Z,3.00
2023-02-19T23:37:55.956Z,3.10
2023-02-19T23:40:24.098Z,3.10
2023-02-19T23:42:52.261Z,3.10
2023-02-19T23:45:20.610Z,3.10
2023-02-19T23:47:48.737Z,3.00
2023-02-19T23:50:18.829Z,3.10
2023-02-19T23:52:46.986Z,3.00
2023-02-19T23:55:15.207Z,3.00
2023-02-19T23:57:43.486Z,3.00
